KMNV

Monroe County Airport

Madisonville, Tennessee, USA
METAR KMNV 152335Z AUTO 27007G14KT 10SM OVC018 01/M01 A3007 RMK A01
Observed Flight Rules
Nov-15 @ 23:35 UTC (19 minutes ago) Marginal Visual Flight Rules
Wind Visibility Clouds
270° at 7 knots
 Gusting to 14 knots
10 miles
  • Overcast at 1,800' AGL
Temperatures Readings
Current 1°C / 34°F
Dewpoint -1°C / 30°F
Humidity 87%
Altimeter 30.07" Hg
Pressure 1018 hPa
Elevation 314
METAR KMNV 152335Z AUTO 27007G14KT 10SM OVC018 01/M01 A3007 RMK A01
Observed Flight Rules
Nov-15 @ 23:35 UTC
(19 minutes ago)
MVFR
Wind Visibility
270° at 7 knots
 Gusting to 14 knots
10 miles
Clouds
  • Overcast at 1,800' AGL
Temperature Dewpoint
1°C / 34°F -1°C / 30°F
Humidity Altimeter Pressure
87% 30.07" Hg 1018 hPa